createdAt,value
2022-08-21T00:02:18.217Z,3.45
2022-08-21T00:04:48.278Z,3.92
2022-08-21T00:07:25.322Z,3.40
2022-08-21T00:09:52.826Z,3.75
2022-08-21T00:12:20.118Z,3.70
2022-08-21T00:14:47.036Z,3.60
2022-08-21T00:17:14.132Z,3.05
2022-08-21T00:19:41.361Z,3.40
2022-08-21T00:22:08.328Z,3.28
2022-08-21T00:24:35.689Z,3.00
2022-08-21T00:27:02.815Z,3.40
2022-08-21T00:29:29.521Z,3.22
2022-08-21T00:31:56.216Z,3.30
2022-08-21T00:34:22.959Z,3.50
2022-08-21T00:36:49.700Z,3.70
2022-08-21T00:39:16.784Z,3.72
2022-08-21T00:41:43.966Z,3.80
2022-08-21T00:44:13.840Z,3.78
2022-08-21T00:46:42.769Z,3.88
2022-08-21T00:49:12.752Z,3.72
2022-08-21T00:51:53.089Z,3.72
2022-08-21T00:54:23.419Z,3.45
2022-08-21T00:56:54.284Z,3.95
2022-08-21T00:59:23.060Z,3.97
2022-08-21T01:01:50.811Z,3.78
2022-08-21T01:04:17.931Z,3.38
2022-08-21T01:06:47.408Z,3.95
2022-08-21T01:09:14.911Z,4.13
2022-08-21T01:11:43.878Z,4.00
2022-08-21T01:14:13.092Z,3.65
2022-08-21T01:16:43.822Z,4.00
2022-08-21T01:19:11.885Z,3.67
2022-08-21T01:21:39.095Z,3.33
2022-08-21T01:24:06.866Z,4.13
2022-08-21T01:26:36.530Z,3.95
2022-08-21T01:29:06.731Z,4.18
2022-08-21T01:31:35.274Z,4.88
2022-08-21T01:34:02.060Z,4.28
2022-08-21T01:36:29.250Z,4.70
2022-08-21T01:38:56.938Z,3.95
2022-08-21T01:41:24.044Z,4.93
2022-08-21T01:43:51.189Z,5.00
2022-08-21T01:46:18.119Z,4.45
2022-08-21T01:48:44.954Z,4.95
2022-08-21T01:51:12.647Z,5.15
2022-08-21T01:53:39.784Z,5.00
2022-08-21T01:56:12.246Z,4.53
2022-08-21T01:58:41.950Z,5.40
2022-08-21T02:01:10.329Z,5.15
2022-08-21T02:03:37.979Z,5.00
2022-08-21T02:06:06.348Z,6.95
2022-08-21T02:08:33.603Z,5.38
2022-08-21T02:11:01.128Z,4.88
2022-08-21T02:13:27.861Z,5.78
2022-08-21T02:15:54.930Z,5.10
2022-08-21T02:18:22.035Z,5.57
2022-08-21T02:20:55.957Z,5.00
2022-08-21T02:23:26.804Z,5.53
2022-08-21T02:25:55.682Z,5.32
2022-08-21T02:28:23.132Z,5.65
2022-08-21T02:30:50.552Z,6.07
2022-08-21T02:33:17.732Z,5.40
2022-08-21T02:35:46.168Z,4.78
2022-08-21T02:38:16.479Z,5.15
2022-08-21T02:40:48.035Z,5.20
2022-08-21T02:43:16.491Z,5.85
2022-08-21T02:45:45.058Z,5.13
2022-08-21T02:48:15.491Z,6.07
2022-08-21T02:50:55.411Z,5.13
2022-08-21T02:53:22.803Z,5.32
2022-08-21T02:55:51.043Z,5.03
2022-08-21T02:58:23.119Z,5.38
2022-08-21T03:00:50.791Z,5.65
2022-08-21T03:03:17.524Z,6.45
2022-08-21T03:05:44.993Z,6.15
2022-08-21T03:08:13.645Z,6.22
2022-08-21T03:10:46.119Z,5.90
2022-08-21T03:13:13.596Z,5.90
2022-08-21T03:15:40.996Z,5.25
2022-08-21T03:18:08.519Z,6.35
2022-08-21T03:20:36.503Z,6.00
2022-08-21T03:23:04.287Z,5.70
2022-08-21T03:25:41.007Z,6.22
2022-08-21T03:28:13.263Z,5.75
2022-08-21T03:30:49.822Z,6.05
2022-08-21T03:33:16.797Z,6.40
2022-08-21T03:35:53.896Z,5.70
2022-08-21T03:38:25.850Z,6.03
2022-08-21T03:40:53.916Z,6.47
2022-08-21T03:43:21.049Z,6.38
2022-08-21T03:45:47.909Z,6.80
2022-08-21T03:48:15.370Z,6.40
2022-08-21T03:50:44.179Z,6.35
2022-08-21T03:53:17.392Z,6.40
2022-08-21T03:55:50.105Z,6.22
2022-08-21T03:58:19.411Z,6.93
2022-08-21T04:00:49.003Z,6.90
2022-08-21T04:03:16.691Z,6.15
2022-08-21T04:05:43.745Z,6.50
2022-08-21T04:08:10.927Z,6.38
2022-08-21T04:10:40.104Z,6.72
2022-08-21T04:13:08.804Z,6.47
2022-08-21T04:15:35.916Z,6.60
2022-08-21T04:18:03.091Z,6.68
2022-08-21T04:20:30.272Z,6.95
2022-08-21T04:22:57.322Z,6.85
2022-08-21T04:25:26.330Z,7.00
2022-08-21T04:27:53.512Z,6.03
2022-08-21T04:30:20.705Z,7.13
2022-08-21T04:32:49.584Z,6.60
2022-08-21T04:35:19.836Z,6.60
2022-08-21T04:37:46.962Z,6.72
2022-08-21T04:40:16.581Z,6.40
2022-08-21T04:42:47.033Z,7.35
2022-08-21T04:45:20.812Z,6.88
2022-08-21T04:47:53.113Z,7.50
2022-08-21T04:50:25.512Z,6.95
2022-08-21T04:53:06.136Z,7.50
2022-08-21T04:55:33.335Z,6.82
2022-08-21T04:58:01.065Z,6.60
2022-08-21T05:00:28.429Z,7.63
2022-08-21T05:02:59.876Z,6.88
2022-08-21T05:05:30.045Z,6.53
2022-08-21T05:07:59.981Z,6.25
2022-08-21T05:10:27.199Z,6.53
2022-08-21T05:12:54.472Z,6.72
2022-08-21T05:15:21.739Z,5.25
2022-08-21T05:17:52.367Z,6.22
2022-08-21T05:20:22.150Z,6.22
2022-08-21T05:22:49.290Z,8.40
2022-08-21T05:25:16.512Z,6.95
2022-08-21T05:27:44.219Z,6.68
2022-08-21T05:30:11.791Z,3.63
2022-08-21T05:32:38.859Z,7.15
2022-08-21T05:35:07.930Z,6.28
2022-08-21T05:37:35.331Z,5.78
2022-08-21T05:40:20.923Z,5.45
2022-08-21T05:42:56.717Z,7.00
2022-08-21T05:45:41.798Z,5.85
2022-08-21T05:48:22.759Z,5.82
2022-08-21T05:50:51.621Z,6.15
2022-08-21T05:53:20.330Z,4.60
2022-08-21T05:55:47.904Z,4.28
2022-08-21T05:58:17.807Z,4.22
2022-08-21T06:00:46.529Z,6.13
2022-08-21T06:03:20.800Z,7.15
2022-08-21T06:05:48.028Z,7.28
2022-08-21T06:08:17.041Z,6.22
2022-08-21T06:10:44.616Z,3.90
2022-08-21T06:13:12.592Z,4.35
2022-08-21T06:15:40.368Z,6.40
2022-08-21T06:18:07.538Z,6.35
2022-08-21T06:20:34.869Z,5.20
2022-08-21T06:23:02.194Z,5.28
2022-08-21T06:25:30.005Z,5.50
2022-08-21T06:28:09.807Z,5.25
2022-08-21T06:30:37.956Z,4.75
2022-08-21T06:33:04.718Z,5.10
2022-08-21T06:35:31.883Z,5.20
2022-08-21T06:37:58.943Z,5.40
2022-08-21T06:40:27.543Z,5.13
2022-08-21T06:42:58.603Z,4.90
2022-08-21T06:45:26.180Z,5.40
2022-08-21T06:50:21.753Z,4.43
2022-08-21T06:52:49.117Z,4.95
2022-08-21T06:55:22.410Z,5.10
2022-08-21T06:57:51.777Z,4.68
2022-08-21T07:00:19.761Z,4.03
2022-08-21T07:02:46.448Z,4.25
2022-08-21T07:05:18.267Z,3.83
2022-08-21T07:07:46.498Z,4.10
2022-08-21T07:10:21.677Z,4.95
2022-08-21T07:12:50.765Z,3.80
2022-08-21T07:15:19.599Z,3.78
2022-08-21T07:17:46.437Z,3.65
2022-08-21T07:20:13.821Z,3.88
2022-08-21T07:22:41.747Z,3.75
2022-08-21T07:25:09.412Z,3.95
2022-08-21T07:27:36.212Z,3.78
2022-08-21T07:30:04.268Z,3.55
2022-08-21T07:32:31.000Z,3.70
2022-08-21T07:34:57.766Z,3.58
2022-08-21T07:37:24.681Z,3.67
2022-08-21T07:39:52.407Z,3.58
2022-08-21T07:42:19.144Z,3.38
2022-08-21T07:44:45.864Z,3.90
2022-08-21T07:47:12.828Z,3.63
2022-08-21T07:49:40.314Z,3.65
2022-08-21T07:52:07.502Z,3.17
2022-08-21T07:54:34.686Z,3.50
2022-08-21T07:57:02.178Z,3.35
2022-08-21T07:59:29.423Z,3.22
2022-08-21T08:01:57.464Z,3.55
2022-08-21T08:04:26.478Z,3.22
2022-08-21T08:06:53.728Z,3.53
2022-08-21T08:09:20.706Z,3.47
2022-08-21T08:11:47.394Z,2.95
2022-08-21T08:14:14.161Z,3.70
2022-08-21T08:16:40.841Z,2.92
2022-08-21T08:19:07.594Z,3.25
2022-08-21T08:21:35.106Z,3.15
2022-08-21T08:24:18.441Z,3.33
2022-08-21T08:26:46.776Z,3.10
2022-08-21T08:29:20.930Z,2.85
2022-08-21T08:31:48.012Z,3.22
2022-08-21T08:34:25.251Z,3.47
2022-08-21T08:36:53.311Z,3.00
2022-08-21T08:39:26.594Z,3.35
2022-08-21T08:42:33.365Z,3.22
2022-08-21T08:45:09.058Z,3.88
2022-08-21T08:47:39.244Z,3.38
2022-08-21T08:50:11.741Z,3.40
2022-08-21T08:52:47.225Z,3.58
2022-08-21T08:57:49.894Z,3.30
2022-08-21T09:00:21.246Z,2.88
2022-08-21T09:02:49.733Z,2.85
2022-08-21T09:05:45.925Z,2.97
2022-08-21T09:08:21.449Z,3.58
2022-08-21T09:11:11.272Z,3.83
2022-08-21T09:14:01.832Z,2.85
2022-08-21T09:16:40.451Z,3.22
2022-08-21T09:19:33.522Z,3.28
2022-08-21T09:22:08.929Z,3.40
2022-08-21T09:24:56.286Z,3.38
2022-08-21T09:27:23.233Z,2.88
2022-08-21T09:29:53.079Z,2.78
2022-08-21T09:32:37.078Z,3.05
2022-08-21T09:35:07.561Z,2.70
2022-08-21T09:37:47.627Z,2.72
2022-08-21T09:40:44.701Z,2.95
2022-08-21T09:43:20.295Z,2.88
2022-08-21T09:45:49.478Z,2.28
2022-08-21T09:48:26.950Z,2.50
2022-08-21T09:51:16.760Z,2.65
2022-08-21T09:53:48.664Z,2.60
2022-08-21T09:56:42.620Z,2.55
2022-08-21T09:59:18.887Z,3.03
2022-08-21T10:01:51.178Z,3.10
2022-08-21T10:04:23.543Z,2.78
2022-08-21T10:06:50.627Z,2.58
2022-08-21T10:09:21.623Z,2.88
2022-08-21T10:12:11.025Z,2.72
2022-08-21T10:14:47.067Z,2.80
2022-08-21T10:20:03.120Z,2.50
2022-08-21T10:22:47.199Z,3.13
2022-08-21T10:25:50.265Z,2.88
2022-08-21T10:28:36.285Z,2.15
2022-08-21T10:31:40.588Z,2.50
2022-08-21T10:34:38.432Z,2.40
2022-08-21T10:37:19.491Z,2.30
2022-08-21T10:39:55.336Z,2.60
2022-08-21T10:42:28.552Z,3.53
2022-08-21T10:45:14.804Z,2.17
2022-08-21T10:48:16.870Z,2.30
2022-08-21T10:50:56.606Z,2.53
2022-08-21T10:53:42.484Z,1.85
2022-08-21T10:56:21.753Z,2.17
2022-08-21T10:59:26.714Z,2.13
2022-08-21T11:01:59.289Z,2.58
2022-08-21T11:04:49.230Z,2.45
2022-08-21T11:07:30.200Z,2.25
2022-08-21T11:10:16.058Z,2.22
2022-08-21T11:15:29.935Z,2.20
2022-08-21T11:18:24.601Z,2.55
2022-08-21T11:21:20.821Z,2.40
2022-08-21T11:24:05.655Z,2.95
2022-08-21T11:26:51.251Z,3.13
2022-08-21T11:29:35.352Z,3.13
2022-08-21T11:32:15.181Z,2.90
2022-08-21T11:35:00.746Z,3.40
2022-08-21T11:37:48.942Z,3.20
2022-08-21T11:40:45.387Z,3.08
2022-08-21T11:43:33.207Z,2.67
2022-08-21T11:46:25.872Z,2.95
2022-08-21T11:48:55.331Z,2.85
2022-08-21T11:51:33.816Z,2.78
2022-08-21T11:54:25.261Z,3.15
2022-08-21T11:57:01.236Z,3.35
2022-08-21T11:59:41.549Z,2.60
2022-08-21T12:02:15.803Z,2.88
2022-08-21T12:04:54.020Z,2.75
2022-08-21T12:07:42.464Z,2.50
2022-08-21T12:10:15.769Z,2.85
2022-08-21T12:12:45.059Z,2.50
2022-08-21T12:15:20.891Z,2.72
2022-08-21T12:18:01.538Z,2.55
2022-08-21T12:20:45.161Z,2.28
2022-08-21T12:23:29.461Z,2.45
2022-08-21T12:26:30.640Z,2.55
2022-08-21T12:29:21.580Z,2.40
2022-08-21T12:32:01.022Z,2.65
2022-08-21T12:34:37.498Z,2.40
2022-08-21T12:37:18.634Z,2.63
2022-08-21T12:39:48.706Z,2.42
2022-08-21T12:42:34.601Z,2.20
2022-08-21T12:45:11.197Z,2.42
2022-08-21T12:47:51.962Z,2.25
2022-08-21T12:50:25.608Z,2.25
2022-08-21T12:53:05.172Z,2.67
2022-08-21T12:55:45.363Z,2.22
2022-08-21T12:58:25.592Z,2.42
2022-08-21T13:00:56.825Z,2.45
2022-08-21T13:03:24.376Z,2.53
2022-08-21T13:05:52.832Z,2.00
2022-08-21T13:08:21.896Z,2.20
2022-08-21T13:10:57.237Z,2.00
2022-08-21T13:13:28.319Z,2.10
2022-08-21T13:16:05.517Z,2.22
2022-08-21T13:18:35.907Z,1.90
2022-08-21T13:21:11.884Z,2.28
2022-08-21T13:23:39.824Z,1.77
2022-08-21T13:26:18.936Z,2.03
2022-08-21T13:28:48.290Z,2.55
2022-08-21T13:33:49.439Z,2.20
2022-08-21T13:36:27.611Z,2.30
2022-08-21T13:38:55.744Z,2.08
2022-08-21T13:41:28.253Z,3.22
2022-08-21T13:44:04.520Z,2.20
2022-08-21T13:46:35.438Z,2.10
2022-08-21T13:49:04.040Z,2.72
2022-08-21T13:51:32.212Z,2.30
2022-08-21T13:53:59.592Z,2.38
2022-08-21T13:56:33.665Z,2.40
2022-08-21T13:59:02.621Z,2.33
2022-08-21T14:01:35.392Z,2.25
2022-08-21T14:04:20.300Z,2.28
2022-08-21T14:06:47.237Z,2.60
2022-08-21T14:09:27.928Z,2.72
2022-08-21T14:11:57.112Z,2.30
2022-08-21T14:14:31.627Z,2.30
2022-08-21T14:17:23.328Z,2.33
2022-08-21T14:19:51.399Z,2.15
2022-08-21T14:22:33.470Z,2.10
2022-08-21T14:25:06.609Z,2.00
2022-08-21T14:27:35.976Z,2.08
2022-08-21T14:32:44.894Z,2.28
2022-08-21T14:35:13.473Z,2.10
2022-08-21T14:37:43.589Z,2.25
2022-08-21T14:40:12.070Z,2.50
2022-08-21T14:42:43.183Z,2.20
2022-08-21T14:45:27.896Z,2.00
2022-08-21T14:47:55.619Z,2.13
2022-08-21T14:50:22.792Z,2.25
2022-08-21T14:52:50.476Z,1.80
2022-08-21T14:55:19.020Z,2.30
2022-08-21T14:57:51.752Z,2.28
2022-08-21T15:00:23.848Z,2.53
2022-08-21T15:03:01.272Z,1.88
2022-08-21T15:05:32.865Z,2.05
2022-08-21T15:08:00.751Z,2.50
2022-08-21T15:10:27.504Z,2.25
2022-08-21T15:12:54.674Z,2.22
2022-08-21T15:15:21.775Z,2.40
2022-08-21T15:17:48.872Z,2.33
2022-08-21T15:20:15.680Z,2.30
2022-08-21T15:22:55.855Z,2.28
2022-08-21T15:25:22.988Z,2.30
2022-08-21T15:27:49.660Z,2.33
2022-08-21T15:30:16.556Z,2.50
2022-08-21T15:32:43.651Z,2.40
2022-08-21T15:35:10.704Z,2.75
2022-08-21T15:37:37.803Z,3.00
2022-08-21T15:40:07.192Z,12.15
2022-08-21T15:42:34.874Z,4.30
2022-08-21T15:45:02.040Z,2.22
2022-08-21T15:47:32.900Z,2.22
2022-08-21T15:49:59.784Z,2.08
2022-08-21T15:52:26.898Z,2.08
2022-08-21T15:54:54.129Z,2.42
2022-08-21T15:57:23.306Z,1.90
2022-08-21T15:59:58.580Z,2.00
2022-08-21T16:02:31.474Z,2.17
2022-08-21T16:04:59.208Z,2.17
2022-08-21T16:07:26.758Z,2.15
2022-08-21T16:09:53.731Z,3.65
2022-08-21T16:12:31.734Z,6.28
2022-08-21T16:15:00.441Z,4.53
2022-08-21T16:17:33.503Z,2.28
2022-08-21T16:20:02.334Z,2.28
2022-08-21T16:22:39.856Z,2.20
2022-08-21T16:25:12.303Z,2.47
2022-08-21T16:27:40.370Z,1.90
2022-08-21T16:30:07.967Z,1.80
2022-08-21T16:32:35.369Z,2.05
2022-08-21T16:35:03.613Z,2.30
2022-08-21T16:37:31.216Z,1.70
2022-08-21T16:39:57.989Z,1.90
2022-08-21T16:42:26.652Z,2.00
2022-08-21T16:44:55.216Z,2.63
2022-08-21T16:47:27.266Z,6.10
2022-08-21T16:49:54.855Z,3.15
2022-08-21T16:52:21.560Z,2.10
2022-08-21T16:54:48.271Z,2.20
2022-08-21T16:57:15.159Z,2.10
2022-08-21T16:59:42.461Z,2.95
2022-08-21T17:02:29.735Z,2.55
2022-08-21T17:04:57.014Z,2.72
2022-08-21T17:07:25.371Z,2.97
2022-08-21T17:09:53.152Z,2.08
2022-08-21T17:12:20.098Z,2.03
2022-08-21T17:14:47.974Z,2.25
2022-08-21T17:17:14.949Z,2.17
2022-08-21T17:19:42.246Z,2.63
2022-08-21T17:22:09.827Z,2.17
2022-08-21T17:24:37.334Z,2.20
2022-08-21T17:27:05.582Z,2.08
2022-08-21T17:29:37.026Z,2.50
2022-08-21T17:32:07.996Z,4.85
2022-08-21T17:34:35.106Z,2.30
2022-08-21T17:37:01.752Z,6.18
2022-08-21T17:39:28.506Z,4.50
2022-08-21T17:41:58.207Z,19.70
2022-08-21T17:44:25.668Z,3.55
2022-08-21T17:46:53.748Z,2.55
2022-08-21T17:49:20.500Z,2.92
2022-08-21T17:51:47.814Z,2.97
2022-08-21T17:54:15.003Z,3.50
2022-08-21T17:56:43.028Z,3.20
2022-08-21T17:59:11.384Z,2.60
2022-08-21T18:01:42.492Z,2.47
2022-08-21T18:04:11.115Z,2.47
2022-08-21T18:06:37.995Z,2.72
2022-08-21T18:09:05.739Z,2.85
2022-08-21T18:11:32.731Z,2.92
2022-08-21T18:14:07.149Z,2.97
2022-08-21T18:16:37.741Z,2.97
2022-08-21T18:19:09.008Z,3.00
2022-08-21T18:21:36.535Z,2.35
2022-08-21T18:24:03.734Z,2.38
2022-08-21T18:26:38.355Z,2.72
2022-08-21T18:29:07.653Z,2.80
2022-08-21T18:31:37.243Z,2.63
2022-08-21T18:34:11.337Z,2.42
2022-08-21T18:36:39.136Z,2.60
2022-08-21T18:39:34.403Z,2.58
2022-08-21T18:41:54.634Z,2.53
2022-08-21T18:44:23.326Z,3.10
2022-08-21T18:46:56.071Z,2.45
2022-08-21T18:49:22.731Z,2.50
2022-08-21T18:51:50.478Z,2.70
2022-08-21T18:54:17.670Z,2.45
2022-08-21T18:56:45.007Z,2.63
2022-08-21T18:59:13.743Z,2.42
2022-08-21T19:01:42.512Z,2.55
2022-08-21T19:04:21.304Z,2.70
2022-08-21T19:06:56.767Z,2.53
2022-08-21T19:09:23.395Z,2.55
2022-08-21T19:14:37.210Z,2.63
2022-08-21T19:17:04.453Z,3.17
2022-08-21T19:19:32.183Z,2.33
2022-08-21T19:21:59.801Z,2.35
2022-08-21T19:24:26.902Z,2.40
2022-08-21T19:26:55.751Z,2.80
2022-08-21T19:29:34.698Z,2.80
2022-08-21T19:32:05.688Z,3.30
2022-08-21T19:34:35.331Z,2.40
2022-08-21T19:37:02.357Z,2.90
2022-08-21T19:39:30.872Z,2.88
2022-08-21T19:41:59.419Z,2.58
2022-08-21T19:44:29.394Z,2.67
2022-08-21T19:46:57.839Z,2.50
2022-08-21T19:49:28.735Z,2.92
2022-08-21T19:51:58.728Z,2.67
2022-08-21T19:54:32.922Z,2.70
2022-08-21T19:57:06.602Z,2.78
2022-08-21T19:59:35.392Z,2.50
2022-08-21T20:02:02.548Z,2.90
2022-08-21T20:04:29.644Z,3.22
2022-08-21T20:06:56.437Z,3.03
2022-08-21T20:09:23.571Z,3.53
2022-08-21T20:11:56.285Z,2.88
2022-08-21T20:14:26.570Z,3.20
2022-08-21T20:17:08.126Z,2.92
2022-08-21T20:19:38.841Z,3.30
2022-08-21T20:22:06.513Z,2.83
2022-08-21T20:24:34.023Z,2.95
2022-08-21T20:29:51.225Z,3.00
2022-08-21T20:32:18.722Z,3.20
2022-08-21T20:34:45.830Z,3.95
2022-08-21T20:37:22.366Z,3.67
2022-08-21T20:42:57.585Z,3.40
2022-08-21T20:45:31.051Z,3.60
2022-08-21T20:48:28.586Z,2.88
2022-08-21T20:51:21.842Z,2.97
2022-08-21T20:54:21.897Z,3.75
2022-08-21T20:57:04.665Z,3.40
2022-08-21T20:59:49.994Z,3.08
2022-08-21T21:02:17.141Z,3.28
2022-08-21T21:04:51.507Z,3.55
2022-08-21T21:07:47.320Z,3.25
2022-08-21T21:10:34.087Z,3.13
2022-08-21T21:13:22.931Z,3.70
2022-08-21T21:15:54.799Z,3.70
2022-08-21T21:18:42.521Z,3.47
2022-08-21T21:21:51.701Z,3.47
2022-08-21T21:24:19.560Z,3.55
2022-08-21T21:26:57.157Z,3.50
2022-08-21T21:29:29.889Z,3.53
2022-08-21T21:31:57.065Z,3.40
2022-08-21T21:34:26.674Z,3.42
2022-08-21T21:37:14.475Z,3.22
2022-08-21T21:39:50.143Z,3.13
2022-08-21T21:42:17.242Z,3.45
2022-08-21T21:45:08.861Z,3.58
2022-08-21T21:47:41.323Z,3.85
2022-08-21T21:50:26.481Z,3.75
2022-08-21T21:52:54.772Z,3.83
2022-08-21T21:55:46.551Z,3.85
2022-08-21T21:58:37.387Z,3.30
2022-08-21T22:01:18.859Z,3.78
2022-08-21T22:03:59.527Z,4.15
2022-08-21T22:06:52.556Z,3.83
2022-08-21T22:09:45.589Z,3.80
2022-08-21T22:12:24.401Z,3.25
2022-08-21T22:14:52.151Z,4.15
2022-08-21T22:17:37.720Z,3.80
2022-08-21T22:20:15.528Z,3.88
2022-08-21T22:22:43.841Z,3.55
2022-08-21T22:25:20.940Z,3.35
2022-08-21T22:30:41.674Z,4.15
2022-08-21T22:33:19.979Z,3.80
2022-08-21T22:35:51.725Z,3.90
2022-08-21T22:38:39.471Z,3.78
2022-08-21T22:41:19.392Z,3.97
2022-08-21T22:43:54.819Z,4.57
2022-08-21T22:46:50.089Z,4.30
2022-08-21T22:49:38.747Z,3.78
2022-08-21T22:52:24.971Z,3.80
2022-08-21T22:54:58.288Z,4.30
2022-08-21T22:57:34.998Z,4.13
2022-08-21T23:00:33.860Z,4.07
2022-08-21T23:03:02.960Z,4.25
2022-08-21T23:08:39.077Z,4.40
2022-08-21T23:11:20.897Z,3.90
2022-08-21T23:13:52.352Z,3.92
2022-08-21T23:16:47.117Z,4.00
2022-08-21T23:19:44.560Z,3.50
2022-08-21T23:22:36.158Z,4.68
2022-08-21T23:25:12.567Z,4.22
2022-08-21T23:28:03.840Z,3.80
2022-08-21T23:30:41.815Z,4.07
2022-08-21T23:33:15.631Z,4.13
2022-08-21T23:36:04.120Z,3.90
2022-08-21T23:38:55.600Z,4.10
2022-08-21T23:42:05.843Z,4.10
2022-08-21T23:44:33.407Z,3.70
2022-08-21T23:47:22.852Z,3.90
2022-08-21T23:52:49.491Z,3.90
2022-08-21T23:55:41.458Z,3.80
2022-08-21T23:58:08.587Z,4.43
